CheckWX is a tool to help pilots better visualize weather data.  It is not intended as a substitute for an official pre-flight weather briefing.

06:25:14 UTC

KAZC METAR
Colorado City Municipal Airport
Colorado City, Arizona, USA
Current

30 mins ago

KAZC 290555Z AUTO 13004KT 10SM CLR 17/05 A3016 RMK AO2
Observed
May-29 @ 05:55 UTC
Wind
  • 130° at 4 KTS
Visibility
Flight Rules
VFR
Cloud Levels
  • Clear skies
Temperature
17°C / 63°F
Dewpoint
C / 41°F
Humidity
45%
Altimeter
30.16" Hg
Pressure
1021.32 hPa
Previous

50 mins ago

KAZC 290535Z AUTO 09006KT 10SM CLR 17/05 A3016 RMK AO2
Observed
May-29 @ 05:35 UTC
Wind
  • 090° at 6 KTS
Visibility
Flight Rules
VFR
Cloud Levels
  • Clear skies
Temperature
17°C / 63°F
Dewpoint
C / 41°F
Humidity
45%
Altimeter
30.16" Hg
Pressure
1021.32 hPa
Previous

1 hour ago

KAZC 290515Z AUTO 09006KT 10SM CLR 18/05 A3016 RMK AO2
Observed
May-29 @ 05:15 UTC
Wind
  • 090° at 6 KTS
Visibility
Flight Rules
VFR
Cloud Levels
  • Clear skies
Temperature
18°C / 64°F
Dewpoint
C / 41°F
Humidity
43%
Altimeter
30.16" Hg
Pressure
1021.32 hPa